Time;durP1;ratioP1;P1;durP2;ratioP2;P2;SDS_P1;SDS_P2;PMS_P1;PMS_P2;Temp;Humidity;BMP_temperature;BMP_pressure;BME280_temperature;BME280_humidity;BME280_pressure;Samples;Min_cycle;Max_cycle;Signal;HPM_P1;HPM_P2
2022/08/05 00:01:40;;;;;;;;;;;;;;;;;;4978055;28;7413;-88
2022/08/05 00:04:05;;;;;;;;;;;;;;;;;;4993661;28;7128;-88
2022/08/05 00:06:31;;;;;;;;;;;;;;;;;;4977480;28;7048;-89
2022/08/05 00:08:56;;;;;;;;;;;;;;;;;;4994485;28;8380;-89
2022/08/05 00:11:22;;;;;;;;;;;;;;;;;;4977019;28;8488;-88
2022/08/05 00:13:47;;;;;;;;;;;;;;;;;;4977495;28;8429;-89
2022/08/05 00:16:14;;;;;;;;;;;;;;;;;;4977101;28;7076;-89
2022/08/05 00:18:42;;;;;;;;;;;;;;;;;;4993410;28;7172;-89
2022/08/05 00:21:08;;;;;;;;;;;;;;;;;;4976893;28;8805;-89
2022/08/05 00:23:33;;;;;;;;;;;;;;;;;;4993571;28;7295;-88
2022/08/05 00:25:58;;;;;;;;;;;;;;;;;;4976738;28;8519;-89
2022/08/05 00:28:24;;;;;;;;;;;;;;;;;;4977332;28;8712;-89
2022/08/05 00:30:49;;;;;;;;;;;;;;;;;;4977027;28;8397;-88
2022/08/05 00:33:16;;;;;;;;;;;;;;;;;;4976964;28;8801;-89
2022/08/05 00:35:41;;;;;;;;;;;;;;;;;;4993701;28;8431;-89
2022/08/05 00:38:07;;;;;;;;;;;;;;;;;;4992928;28;7152;-89
2022/08/05 00:40:32;;;;;;;;;;;;;;;;;;4977154;28;7132;-88
2022/08/05 00:43:00;;;;;;;;;;;;;;;;;;4976837;28;8461;-90
2022/08/05 00:45:25;;;;;;;;;;;;;;;;;;4992877;28;7916;-88
2022/08/05 00:47:51;;;;;;;;;;;;;;;;;;4976278;28;7168;-89
2022/08/05 00:50:16;;;;;;;;;;;;;;;;;;4976123;28;7099;-88
2022/08/05 00:52:42;;;;;;;;;;;;;;;;;;4976128;28;6808;-85
2022/08/05 00:55:07;;;;;;;;;;;;;;;;;;4975713;28;7798;-85
2022/08/05 00:57:32;;;;;;;;;;;;;;;;;;4976717;28;7329;-85
2022/08/05 00:59:58;;;;;;;;;;;;;;;;;;4976660;28;7333;-86
2022/08/05 01:02:23;;;;;;;;;;;;;;;;;;4976203;28;7027;-85
2022/08/05 01:04:49;;;;;;;;;;;;;;;;;;4976759;28;8493;-85
2022/08/05 01:07:14;;;;;;;;;;;;;;;;;;4977020;28;7019;-85
2022/08/05 01:09:40;;;;;;;;;;;;;;;;;;4976513;28;7033;-85
2022/08/05 01:12:11;;;;;;;;;;;;;;;;;;4992505;28;8467;-85
2022/08/05 01:14:45;;;;;;;;;;;;;;;;;;4992029;28;8673;-85
2022/08/05 01:17:13;;;;;;;;;;;;;;;;;;4992443;28;8427;-85
2022/08/05 01:19:42;;;;;;;;;;;;;;;;;;4992078;28;8470;-85
2022/08/05 01:22:26;;;;;;;;;;;;;;;;;;4992499;28;7168;-85
2022/08/05 01:24:55;;;;;;;;;;;;;;;;;;4992079;28;8351;-85
2022/08/05 01:27:39;;;;;;;;;;;;;;;;;;4975723;28;7128;-85
2022/08/05 01:30:05;;;;;;;;;;;;;;;;;;4991678;28;8350;-85
2022/08/05 01:32:34;;;;;;;;;;;;;;;;;;4992327;28;7178;-85
2022/08/05 01:35:02;;;;;;;;;;;;;;;;;;4991912;28;6901;-85
2022/08/05 01:37:54;;;;;;;;;;;;;;;;;;4991830;28;8605;-85
2022/08/05 01:40:22;;;;;;;;;;;;;;;;;;4987572;28;8706;-85
2022/08/05 01:42:50;;;;;;;;;;;;;;;;;;4992349;28;7083;-85
2022/08/05 01:45:19;;;;;;;;;;;;;;;;;;4991372;28;7143;-85
2022/08/05 01:47:48;;;;;;;;;;;;;;;;;;4991816;28;8871;-85
2022/08/05 01:50:21;;;;;;;;;;;;;;;;;;4992023;28;7176;-85
2022/08/05 01:52:48;;;;;;;;;;;;;;;;;;4992042;28;8487;-85
2022/08/05 01:55:16;;;;;;;;;;;;;;;;;;4991591;28;8403;-85
2022/08/05 01:57:44;;;;;;;;;;;;;;;;;;4991514;28;7047;-84
2022/08/05 02:00:11;;;;;;;;;;;;;;;;;;4991108;28;7075;-84
2022/08/05 02:02:38;;;;;;;;;;;;;;;;;;4991312;28;8338;-84
2022/08/05 02:05:08;;;;;;;;;;;;;;;;;;4991478;28;8454;-84
2022/08/05 02:07:34;;;;;;;;;;;;;;;;;;4991484;28;7257;-84
2022/08/05 02:10:01;;;;;;;;;;;;;;;;;;4991339;28;7171;-84
2022/08/05 02:12:26;;;;;;;;;;;;;;;;;;4991265;28;7627;-84
2022/08/05 02:14:59;;;;;;;;;;;;;;;;;;4974304;28;7012;-84
2022/08/05 02:17:30;;;;;;;;;;;;;;;;;;4991698;28;7509;-84
2022/08/05 02:20:00;;;;;;;;;;;;;;;;;;4991174;28;7424;-84
2022/08/05 02:22:31;;;;;;;;;;;;;;;;;;4991392;28;8480;-84
2022/08/05 02:25:01;;;;;;;;;;;;;;;;;;4991327;28;8708;-84
2022/08/05 02:27:29;;;;;;;;;;;;;;;;;;4990913;28;8706;-84
2022/08/05 02:29:57;;;;;;;;;;;;;;;;;;4990196;28;7203;-88
2022/08/05 02:32:27;;;;;;;;;;;;;;;;;;4991185;28;8443;-88
2022/08/05 02:34:53;;;;;;;;;;;;;;;;;;4990257;28;7162;-87
2022/08/05 02:37:21;;;;;;;;;;;;;;;;;;4991028;28;8501;-87
2022/08/05 02:39:48;;;;;;;;;;;;;;;;;;4989887;28;7158;-87
2022/08/05 02:42:14;;;;;;;;;;;;;;;;;;4990894;28;7213;-89
2022/08/05 02:44:43;;;;;;;;;;;;;;;;;;4991275;28;8394;-88
2022/08/05 02:47:10;;;;;;;;;;;;;;;;;;4990951;28;7262;-89
2022/08/05 02:49:40;;;;;;;;;;;;;;;;;;4991251;28;7190;-89
2022/08/05 02:52:12;;;;;;;;;;;;;;;;;;4990952;28;7050;-88
2022/08/05 02:54:40;;;;;;;;;;;;;;;;;;4991009;28;7182;-89
2022/08/05 02:57:08;;;;;;;;;;;;;;;;;;4991273;28;6830;-88
2022/08/05 02:59:34;;;;;;;;;;;;;;;;;;4989203;28;8344;-88
2022/08/05 03:02:01;;;;;;;;;;;;;;;;;;4990747;28;7133;-88
2022/08/05 03:04:28;;;;;;;;;;;;;;;;;;4990703;28;8506;-88
2022/08/05 03:06:54;;;;;;;;;;;;;;;;;;4990653;28;8420;-90
2022/08/05 03:09:19;;;;;;;;;;;;;;;;;;4990752;28;7152;-88
2022/08/05 03:11:45;;;;;;;;;;;;;;;;;;4991192;28;8437;-87
2022/08/05 03:14:11;;;;;;;;;;;;;;;;;;4990716;28;7167;-89
2022/08/05 03:16:36;;;;;;;;;;;;;;;;;;4974539;28;7026;-88
2022/08/05 03:19:03;;;;;;;;;;;;;;;;;;4975884;28;6809;-89
2022/08/05 03:21:28;;;;;;;;;;;;;;;;;;4994768;28;7449;-88
2022/08/05 03:24:12;;;;;;;;;;;;;;;;;;4994814;28;8490;-88
2022/08/05 03:26:57;;;;;;;;;;;;;;;;;;4993882;28;7136;-88
2022/08/05 03:29:22;;;;;;;;;;;;;;;;;;4994397;28;8525;-88
2022/08/05 03:31:48;;;;;;;;;;;;;;;;;;4976453;28;8634;-88
2022/08/05 03:34:14;;;;;;;;;;;;;;;;;;4993316;28;7130;-89
2022/08/05 03:36:39;;;;;;;;;;;;;;;;;;4994071;28;8704;-88
2022/08/05 03:39:06;;;;;;;;;;;;;;;;;;4977627;28;7169;-89
2022/08/05 03:41:32;;;;;;;;;;;;;;;;;;4993570;28;7066;-91
2022/08/05 03:43:58;;;;;;;;;;;;;;;;;;4993911;28;7150;-88
2022/08/05 03:46:23;;;;;;;;;;;;;;;;;;4993428;28;7262;-89
2022/08/05 03:48:49;;;;;;;;;;;;;;;;;;4976859;28;7042;-88
2022/08/05 03:51:18;;;;;;;;;;;;;;;;;;4993613;28;8430;-89
2022/08/05 03:53:44;;;;;;;;;;;;;;;;;;4993631;28;7054;-90
2022/08/05 03:56:16;;;;;;;;;;;;;;;;;;4993331;28;9339;-87
2022/08/05 03:58:44;;;;;;;;;;;;;;;;;;4988384;28;8370;-89
2022/08/05 04:01:13;;;;;;;;;;;;;;;;;;4993163;28;8335;-88
2022/08/05 04:03:41;;;;;;;;;;;;;;;;;;4993222;28;8372;-88
2022/08/05 04:06:08;;;;;;;;;;;;;;;;;;4993423;28;8458;-87
2022/08/05 04:08:34;;;;;;;;;;;;;;;;;;4993104;28;7041;-87
2022/08/05 04:11:01;;;;;;;;;;;;;;;;;;4993156;28;8516;-87
2022/08/05 04:13:27;;;;;;;;;;;;;;;;;;4993056;28;8429;-87
2022/08/05 04:15:53;;;;;;;;;;;;;;;;;;4993256;28;8604;-89
2022/08/05 04:18:21;;;;;;;;;;;;;;;;;;4993192;28;7049;-87
2022/08/05 04:20:51;;;;;;;;;;;;;;;;;;4993109;28;8291;-88
2022/08/05 04:23:18;;;;;;;;;;;;;;;;;;4993263;28;8391;-89
2022/08/05 04:25:43;;;;;;;;;;;;;;;;;;4993180;28;7047;-89
2022/08/05 04:28:09;;;;;;;;;;;;;;;;;;4977134;28;8387;-90
2022/08/05 04:30:34;;;;;;;;;;;;;;;;;;4977064;28;7191;-88
2022/08/05 04:33:00;;;;;;;;;;;;;;;;;;4959165;28;8477;-88
2022/08/05 04:35:25;;;;;;;;;;;;;;;;;;4986213;28;8445;-87
2022/08/05 04:37:50;;;;;;;;;;;;;;;;;;4974584;28;8429;-88
2022/08/05 04:40:16;;;;;;;;;;;;;;;;;;4972769;28;8316;-83
2022/08/05 04:42:41;;;;;;;;;;;;;;;;;;4974766;28;7067;-83
2022/08/05 04:45:07;;;;;;;;;;;;;;;;;;4973959;28;6888;-84
2022/08/05 04:47:32;;;;;;;;;;;;;;;;;;4975174;28;7118;-83
2022/08/05 04:49:58;;;;;;;;;;;;;;;;;;4975648;28;7300;-83
2022/08/05 04:52:23;;;;;;;;;;;;;;;;;;4973984;28;8524;-87
2022/08/05 04:54:48;;;;;;;;;;;;;;;;;;4975659;28;7166;-87
2022/08/05 04:57:14;;;;;;;;;;;;;;;;;;4974965;28;8544;-87
2022/08/05 04:59:39;;;;;;;;;;;;;;;;;;4975084;28;7167;-87
2022/08/05 05:02:05;;;;;;;;;;;;;;;;;;4991887;28;7492;-86
2022/08/05 05:04:31;;;;;;;;;;;;;;;;;;4992390;28;7363;-87
2022/08/05 05:06:56;;;;;;;;;;;;;;;;;;4991875;28;7027;-87
2022/08/05 05:09:22;;;;;;;;;;;;;;;;;;4991070;28;7111;-87
2022/08/05 05:11:47;;;;;;;;;;;;;;;;;;4991980;28;7355;-88
2022/08/05 05:14:13;;;;;;;;;;;;;;;;;;4991818;28;7228;-88
2022/08/05 05:16:38;;;;;;;;;;;;;;;;;;4990994;28;9333;-86
2022/08/05 05:19:03;;;;;;;;;;;;;;;;;;4991827;28;8407;-88
2022/08/05 05:21:29;;;;;;;;;;;;;;;;;;4991239;28;8454;-87
2022/08/05 05:23:54;;;;;;;;;;;;;;;;;;4990271;28;8457;-87
2022/08/05 05:26:20;;;;;;;;;;;;;;;;;;4990692;28;7151;-89
2022/08/05 05:28:46;;;;;;;;;;;;;;;;;;4991065;28;7222;-89
2022/08/05 05:31:12;;;;;;;;;;;;;;;;;;4990427;28;8642;-88
2022/08/05 05:33:37;;;;;;;;;;;;;;;;;;4990466;28;8632;-87
2022/08/05 05:36:03;;;;;;;;;;;;;;;;;;4992426;28;8338;-85
2022/08/05 05:38:28;;;;;;;;;;;;;;;;;;4990210;28;8373;-88
2022/08/05 05:40:54;;;;;;;;;;;;;;;;;;4989895;28;6796;-89
2022/08/05 05:43:21;;;;;;;;;;;;;;;;;;4991772;28;7358;-87
2022/08/05 05:45:47;;;;;;;;;;;;;;;;;;4992367;28;8443;-86
2022/08/05 05:48:13;;;;;;;;;;;;;;;;;;4991590;28;8509;-85
2022/08/05 05:50:39;;;;;;;;;;;;;;;;;;4990884;28;8773;-89
2022/08/05 05:53:08;;;;;;;;;;;;;;;;;;4990729;28;7070;-87
2022/08/05 05:55:34;;;;;;;;;;;;;;;;;;4990830;28;7217;-88
2022/08/05 05:57:59;;;;;;;;;;;;;;;;;;4990331;28;7693;-88
2022/08/05 06:00:24;;;;;;;;;;;;;;;;;;4990480;28;7246;-90
2022/08/05 06:02:50;;;;;;;;;;;;;;;;;;4990237;28;7166;-88
2022/08/05 06:05:16;;;;;;;;;;;;;;;;;;4990174;28;6838;-90
2022/08/05 06:07:43;;;;;;;;;;;;;;;;;;4990054;28;7200;-87
2022/08/05 06:10:09;;;;;;;;;;;;;;;;;;4974127;28;7263;-89
2022/08/05 06:12:35;;;;;;;;;;;;;;;;;;4974421;28;8439;-89
2022/08/05 06:15:01;;;;;;;;;;;;;;;;;;4974421;28;8763;-84
2022/08/05 06:17:30;;;;;;;;;;;;;;;;;;4977626;28;8765;-90
2022/08/05 06:19:56;;;;;;;;;;;;;;;;;;4977236;28;8343;-88
2022/08/05 06:22:23;;;;;;;;;;;;;;;;;;4975522;28;8688;-88
2022/08/05 06:24:49;;;;;;;;;;;;;;;;;;4976977;28;7269;-88
2022/08/05 06:27:15;;;;;;;;;;;;;;;;;;4974889;28;7033;-88
2022/08/05 06:29:40;;;;;;;;;;;;;;;;;;4974225;28;8297;-85
2022/08/05 06:32:06;;;;;;;;;;;;;;;;;;4972604;28;7040;-88
2022/08/05 06:34:32;;;;;;;;;;;;;;;;;;4942382;28;12073;-89
2022/08/05 06:36:57;;;;;;;;;;;;;;;;;;4985763;28;7049;-88
2022/08/05 06:39:23;;;;;;;;;;;;;;;;;;4974568;28;7462;-90
2022/08/05 06:41:49;;;;;;;;;;;;;;;;;;4973804;28;7020;-89
2022/08/05 06:44:14;;;;;;;;;;;;;;;;;;4973807;28;8305;-90
2022/08/05 06:46:40;;;;;;;;;;;;;;;;;;4973176;28;7032;-88
2022/08/05 06:49:05;;;;;;;;;;;;;;;;;;4974525;28;8420;-88
2022/08/05 06:51:31;;;;;;;;;;;;;;;;;;4974513;28;8420;-88
2022/08/05 06:53:57;;;;;;;;;;;;;;;;;;4975593;28;7173;-88
2022/08/05 06:56:23;;;;;;;;;;;;;;;;;;4978417;28;7244;-85
2022/08/05 06:58:49;;;;;;;;;;;;;;;;;;4978641;28;6822;-88
2022/08/05 07:01:14;;;;;;;;;;;;;;;;;;4977999;28;8427;-87
2022/08/05 07:03:40;;;;;;;;;;;;;;;;;;4978725;28;8508;-87
2022/08/05 07:06:05;;;;;;;;;;;;;;;;;;4977570;28;8442;-88
2022/08/05 07:08:31;;;;;;;;;;;;;;;;;;4977932;28;8433;-87
2022/08/05 07:10:56;;;;;;;;;;;;;;;;;;4977323;28;7022;-88
2022/08/05 07:18:50;;;;;;;;;;;;;;;;;;4979001;28;6811;-89
2022/08/05 07:21:16;;;;;;;;;;;;;;;;;;4976590;28;8293;-90
2022/08/05 07:23:41;;;;;;;;;;;;;;;;;;4973243;28;7257;-87
2022/08/05 07:26:07;;;;;;;;;;;;;;;;;;4991686;28;7252;-88
2022/08/05 07:28:33;;;;;;;;;;;;;;;;;;4993741;28;7043;-87
2022/08/05 07:30:58;;;;;;;;;;;;;;;;;;4993250;28;7321;-87
2022/08/05 07:33:24;;;;;;;;;;;;;;;;;;4987535;28;8787;-87
2022/08/05 07:35:49;;;;;;;;;;;;;;;;;;4972699;28;8470;-89
2022/08/05 07:38:15;;;;;;;;;;;;;;;;;;4972687;28;7167;-87
2022/08/05 07:40:42;;;;;;;;;;;;;;;;;;4973265;28;7602;-87
2022/08/05 07:43:08;;;;;;;;;;;;;;;;;;4973416;28;8419;-87
2022/08/05 07:45:34;;;;;;;;;;;;;;;;;;4972684;28;7425;-86
2022/08/05 07:47:59;;;;;;;;;;;;;;;;;;4972881;28;6947;-89
2022/08/05 07:50:25;;;;;;;;;;;;;;;;;;4973503;28;7143;-84
2022/08/05 07:52:50;;;;;;;;;;;;;;;;;;4973482;28;8718;-89
2022/08/05 07:55:16;;;;;;;;;;;;;;;;;;4973172;28;8519;-90
2022/08/05 07:57:42;;;;;;;;;;;;;;;;;;4972615;28;7247;-90
2022/08/05 08:00:08;;;;;;;;;;;;;;;;;;4973132;28;7155;-83
2022/08/05 08:02:33;;;;;;;;;;;;;;;;;;4973149;28;8327;-83
2022/08/05 08:05:00;;;;;;;;;;;;;;;;;;4987946;28;7255;-84
2022/08/05 08:07:25;;;;;;;;;;;;;;;;;;4991987;28;8726;-82
2022/08/05 08:09:51;;;;;;;;;;;;;;;;;;4992265;28;8431;-83
2022/08/05 08:12:16;;;;;;;;;;;;;;;;;;4992400;28;7419;-83
2022/08/05 08:14:43;;;;;;;;;;;;;;;;;;4991861;28;8279;-83
2022/08/05 08:17:09;;;;;;;;;;;;;;;;;;4990871;28;7188;-86
2022/08/05 08:19:41;;;;;;;;;;;;;;;;;;4992332;28;7169;-87
2022/08/05 08:22:08;;;;;;;;;;;;;;;;;;4992480;28;8731;-86
2022/08/05 08:24:39;;;;;;;;;;;;;;;;;;4992057;28;7443;-85
2022/08/05 08:27:05;;;;;;;;;;;;;;;;;;4978784;28;7045;-82
2022/08/05 08:29:32;;;;;;;;;;;;;;;;;;5001394;28;8485;-82
2022/08/05 08:31:57;;;;;;;;;;;;;;;;;;5003053;28;8593;-84
2022/08/05 08:34:24;;;;;;;;;;;;;;;;;;4993985;28;8775;-85
2022/08/05 08:36:50;;;;;;;;;;;;;;;;;;4991400;28;8531;-86
2022/08/05 08:39:17;;;;;;;;;;;;;;;;;;4991563;28;8359;-85
2022/08/05 08:41:43;;;;;;;;;;;;;;;;;;4992305;28;7401;-85
2022/08/05 08:44:10;;;;;;;;;;;;;;;;;;4992060;28;7743;-88
2022/08/05 08:46:36;;;;;;;;;;;;;;;;;;4990907;28;7093;-89
2022/08/05 08:49:03;;;;;;;;;;;;;;;;;;4992860;28;7202;-89
2022/08/05 08:51:31;;;;;;;;;;;;;;;;;;4992196;28;8490;-90
2022/08/05 08:53:57;;;;;;;;;;;;;;;;;;4991087;28;7241;-86
2022/08/05 08:56:23;;;;;;;;;;;;;;;;;;4974639;28;8516;-90
2022/08/05 08:58:50;;;;;;;;;;;;;;;;;;4975472;28;8683;-91
2022/08/05 09:01:16;;;;;;;;;;;;;;;;;;4975003;28;8657;-90
2022/08/05 09:03:43;;;;;;;;;;;;;;;;;;4975324;28;8741;-89
2022/08/05 09:06:09;;;;;;;;;;;;;;;;;;4975072;28;7231;-85
2022/08/05 09:08:34;;;;;;;;;;;;;;;;;;4975424;28;8466;-85
2022/08/05 09:11:00;;;;;;;;;;;;;;;;;;4974870;28;7064;-85
2022/08/05 09:13:26;;;;;;;;;;;;;;;;;;4974957;28;7179;-85
2022/08/05 09:15:52;;;;;;;;;;;;;;;;;;4973825;28;7193;-84
2022/08/05 09:18:18;;;;;;;;;;;;;;;;;;4974572;28;7367;-85
2022/08/05 09:20:44;;;;;;;;;;;;;;;;;;4975008;28;8883;-85
2022/08/05 09:23:11;;;;;;;;;;;;;;;;;;4975069;28;7089;-89
2022/08/05 09:25:38;;;;;;;;;;;;;;;;;;4974452;28;7248;-85
2022/08/05 09:28:12;;;;;;;;;;;;;;;;;;4975349;28;7204;-83
2022/08/05 09:30:41;;;;;;;;;;;;;;;;;;4975594;28;8356;-89
2022/08/05 09:33:06;;;;;;;;;;;;;;;;;;4976014;28;8723;-89
2022/08/05 09:35:32;;;;;;;;;;;;;;;;;;4975094;28;8411;-86
2022/08/05 09:37:57;;;;;;;;;;;;;;;;;;4974135;28;7041;-88
2022/08/05 09:40:35;;;;;;;;;;;;;;;;;;4974921;28;7205;-90
2022/08/05 09:43:02;;;;;;;;;;;;;;;;;;4974997;28;7079;-88
2022/08/05 09:45:35;;;;;;;;;;;;;;;;;;4974838;28;8322;-89
2022/08/05 09:48:24;;;;;;;;;;;;;;;;;;4975114;28;7075;-88
2022/08/05 09:50:56;;;;;;;;;;;;;;;;;;4976155;28;7169;-90
2022/08/05 09:53:22;;;;;;;;;;;;;;;;;;4976524;28;8830;-89
2022/08/05 09:55:50;;;;;;;;;;;;;;;;;;4974960;28;8639;-88
2022/08/05 09:58:16;;;;;;;;;;;;;;;;;;4974487;28;7059;-89
2022/08/05 10:00:52;;;;;;;;;;;;;;;;;;4974261;28;8326;-88
2022/08/05 10:03:21;;;;;;;;;;;;;;;;;;4975014;28;7282;-85
2022/08/05 10:05:59;;;;;;;;;;;;;;;;;;4974322;28;8532;-85
2022/08/05 10:08:25;;;;;;;;;;;;;;;;;;4974111;28;8455;-88
2022/08/05 10:10:50;;;;;;;;;;;;;;;;;;4972870;28;7079;-85
2022/08/05 10:13:32;;;;;;;;;;;;;;;;;;4973995;28;8532;-85
2022/08/05 10:15:59;;;;;;;;;;;;;;;;;;4973441;28;8388;-85
2022/08/05 10:18:26;;;;;;;;;;;;;;;;;;4974008;28;7206;-89
2022/08/05 10:20:53;;;;;;;;;;;;;;;;;;4974294;28;8797;-87
2022/08/05 10:23:20;;;;;;;;;;;;;;;;;;4973994;28;7078;-85
2022/08/05 10:25:46;;;;;;;;;;;;;;;;;;4973985;28;8728;-85
2022/08/05 10:28:11;;;;;;;;;;;;;;;;;;4973631;28;8839;-85
2022/08/05 10:30:38;;;;;;;;;;;;;;;;;;4973962;28;7053;-85
2022/08/05 10:33:04;;;;;;;;;;;;;;;;;;4973569;28;8469;-85
2022/08/05 10:35:30;;;;;;;;;;;;;;;;;;4973824;28;8876;-85
2022/08/05 10:37:56;;;;;;;;;;;;;;;;;;4972601;28;8481;-88
2022/08/05 10:40:34;;;;;;;;;;;;;;;;;;4973814;28;8519;-78
2022/08/05 10:43:26;;;;;;;;;;;;;;;;;;4989899;28;7292;-80
2022/08/05 10:45:59;;;;;;;;;;;;;;;;;;4949852;28;7352;-79
2022/08/05 10:48:30;;;;;;;;;;;;;;;;;;4973100;28;8633;-89
2022/08/05 10:51:01;;;;;;;;;;;;;;;;;;4973538;28;8748;-90
2022/08/05 10:53:35;;;;;;;;;;;;;;;;;;4991056;28;8703;-90
2022/08/05 10:56:02;;;;;;;;;;;;;;;;;;4973183;28;8965;-90
2022/08/05 10:58:27;;;;;;;;;;;;;;;;;;4973374;28;8718;-91
2022/08/05 11:00:54;;;;;;;;;;;;;;;;;;4973702;28;7062;-89
2022/08/05 11:03:20;;;;;;;;;;;;;;;;;;4973645;28;8465;-88
2022/08/05 11:06:03;;;;;;;;;;;;;;;;;;4973288;28;7176;-89
2022/08/05 11:08:29;;;;;;;;;;;;;;;;;;4991242;28;7471;-90
2022/08/05 11:11:15;;;;;;;;;;;;;;;;;;4975035;28;7327;-88
2022/08/05 11:13:43;;;;;;;;;;;;;;;;;;4974013;28;7105;-89
2022/08/05 11:16:20;;;;;;;;;;;;;;;;;;4973939;28;6884;-89
2022/08/05 11:18:46;;;;;;;;;;;;;;;;;;4974704;28;7104;-88
2022/08/05 11:21:30;;;;;;;;;;;;;;;;;;4974657;28;6849;-88
2022/08/05 11:23:55;;;;;;;;;;;;;;;;;;4973941;28;8714;-89
2022/08/05 11:26:22;;;;;;;;;;;;;;;;;;4973098;28;7287;-89
2022/08/05 11:28:49;;;;;;;;;;;;;;;;;;4973342;28;8544;-87
2022/08/05 11:31:14;;;;;;;;;;;;;;;;;;4973757;28;7092;-90
2022/08/05 11:33:46;;;;;;;;;;;;;;;;;;4989750;28;7275;-87
2022/08/05 11:36:13;;;;;;;;;;;;;;;;;;4989386;28;7087;-83
2022/08/05 11:38:38;;;;;;;;;;;;;;;;;;4973048;28;8337;-84
2022/08/05 11:41:05;;;;;;;;;;;;;;;;;;4992100;28;7161;-87
2022/08/05 11:43:31;;;;;;;;;;;;;;;;;;4977366;28;6927;-89
2022/08/05 11:45:57;;;;;;;;;;;;;;;;;;4979346;28;7051;-88
2022/08/05 11:48:24;;;;;;;;;;;;;;;;;;4979297;28;7080;-89
2022/08/05 11:50:50;;;;;;;;;;;;;;;;;;4979796;28;8366;-89
2022/08/05 11:53:16;;;;;;;;;;;;;;;;;;4979114;28;8445;-89
2022/08/05 11:55:52;;;;;;;;;;;;;;;;;;4978309;28;8673;-89
2022/08/05 11:58:47;;;;;;;;;;;;;;;;;;4976665;28;7093;-89
2022/08/05 12:01:14;;;;;;;;;;;;;;;;;;4962515;28;7205;-89
2022/08/05 12:03:48;;;;;;;;;;;;;;;;;;4975754;28;7204;-88
2022/08/05 12:06:15;;;;;;;;;;;;;;;;;;4974505;28;7044;-89
2022/08/05 12:08:41;;;;;;;;;;;;;;;;;;4976552;28;7087;-88
2022/08/05 12:11:08;;;;;;;;;;;;;;;;;;4995170;28;7220;-90
2022/08/05 12:13:33;;;;;;;;;;;;;;;;;;4977048;28;7318;-90
2022/08/05 12:15:59;;;;;;;;;;;;;;;;;;4975522;28;7317;-89
2022/08/05 12:18:32;;;;;;;;;;;;;;;;;;4977838;28;7079;-86
2022/08/05 12:21:07;;;;;;;;;;;;;;;;;;4979654;28;8547;-90
2022/08/05 12:23:33;;;;;;;;;;;;;;;;;;4979089;28;8471;-89
2022/08/05 12:25:58;;;;;;;;;;;;;;;;;;4977758;28;8661;-89
2022/08/05 12:28:30;;;;;;;;;;;;;;;;;;4977816;28;7055;-90
2022/08/05 12:30:56;;;;;;;;;;;;;;;;;;4977151;28;8476;-89
2022/08/05 12:33:22;;;;;;;;;;;;;;;;;;4976581;28;7043;-90
2022/08/05 12:35:48;;;;;;;;;;;;;;;;;;4976075;28;8775;-88
2022/08/05 12:38:14;;;;;;;;;;;;;;;;;;4976289;28;7244;-85
2022/08/05 12:40:39;;;;;;;;;;;;;;;;;;4978271;28;8417;-81
2022/08/05 12:43:08;;;;;;;;;;;;;;;;;;4984885;28;8501;-81
2022/08/05 12:45:33;;;;;;;;;;;;;;;;;;4992164;28;8424;-83
2022/08/05 12:48:12;;;;;;;;;;;;;;;;;;4972135;28;8522;-85
2022/08/05 12:50:37;;;;;;;;;;;;;;;;;;4976912;28;8762;-84
2022/08/05 12:53:03;;;;;;;;;;;;;;;;;;4981269;28;7370;-78
2022/08/05 12:55:29;;;;;;;;;;;;;;;;;;4984021;28;8455;-82
2022/08/05 12:57:56;;;;;;;;;;;;;;;;;;4979505;28;7291;-88
2022/08/05 13:00:24;;;;;;;;;;;;;;;;;;4970231;28;8448;-85
2022/08/05 13:02:51;;;;;;;;;;;;;;;;;;4972032;28;7108;-89
2022/08/05 13:05:18;;;;;;;;;;;;;;;;;;4972346;28;8539;-87
2022/08/05 13:07:45;;;;;;;;;;;;;;;;;;4970912;28;7114;-84
2022/08/05 13:10:12;;;;;;;;;;;;;;;;;;4971336;28;7231;-89
2022/08/05 13:12:43;;;;;;;;;;;;;;;;;;4971655;28;8615;-88
2022/08/05 13:15:10;;;;;;;;;;;;;;;;;;4971432;28;8003;-88
2022/08/05 13:17:36;;;;;;;;;;;;;;;;;;4971418;28;7106;-89
2022/08/05 13:20:07;;;;;;;;;;;;;;;;;;4972135;28;7150;-87
2022/08/05 13:22:34;;;;;;;;;;;;;;;;;;4972074;28;7249;-88
2022/08/05 13:25:01;;;;;;;;;;;;;;;;;;4971892;28;8574;-88
2022/08/05 13:27:32;;;;;;;;;;;;;;;;;;4970954;28;7097;-85
2022/08/05 13:29:58;;;;;;;;;;;;;;;;;;4971242;28;7057;-88
2022/08/05 13:32:24;;;;;;;;;;;;;;;;;;4970906;28;8468;-85
2022/08/05 13:34:50;;;;;;;;;;;;;;;;;;4972019;28;7300;-89
2022/08/05 13:37:16;;;;;;;;;;;;;;;;;;4970499;28;7227;-83
2022/08/05 13:39:41;;;;;;;;;;;;;;;;;;4970592;28;7348;-80
2022/08/05 13:42:08;;;;;;;;;;;;;;;;;;4970145;28;8412;-78
2022/08/05 13:44:34;;;;;;;;;;;;;;;;;;4971895;28;7123;-78
2022/08/05 13:46:59;;;;;;;;;;;;;;;;;;4970341;28;8447;-79
2022/08/05 13:49:26;;;;;;;;;;;;;;;;;;4972054;28;6918;-79
2022/08/05 13:51:51;;;;;;;;;;;;;;;;;;4970982;28;7162;-78
2022/08/05 13:54:19;;;;;;;;;;;;;;;;;;4970618;28;7189;-77
2022/08/05 13:56:44;;;;;;;;;;;;;;;;;;4970214;28;7095;-76
2022/08/05 13:59:09;;;;;;;;;;;;;;;;;;4970792;28;7282;-73
2022/08/05 14:01:35;;;;;;;;;;;;;;;;;;4991095;28;8416;-77
2022/08/05 14:06:44;;;;;;;;;;;;;;;;;;4976114;28;6979;-86
2022/08/05 14:09:10;;;;;;;;;;;;;;;;;;4975084;28;8437;-85
2022/08/05 14:11:39;;;;;;;;;;;;;;;;;;4975150;28;7227;-86
2022/08/05 14:14:06;;;;;;;;;;;;;;;;;;4974842;28;7280;-86
2022/08/05 14:16:32;;;;;;;;;;;;;;;;;;4975246;28;8322;-87
2022/08/05 14:18:57;;;;;;;;;;;;;;;;;;4975309;28;8467;-86
2022/08/05 14:21:23;;;;;;;;;;;;;;;;;;4974705;28;7154;-90
2022/08/05 14:23:48;;;;;;;;;;;;;;;;;;4974948;28;8779;-87
2022/08/05 14:26:14;;;;;;;;;;;;;;;;;;4975079;28;8793;-87
2022/08/05 14:28:39;;;;;;;;;;;;;;;;;;4975185;28;7069;-87
2022/08/05 14:31:05;;;;;;;;;;;;;;;;;;4974853;28;8567;-86
2022/08/05 14:33:32;;;;;;;;;;;;;;;;;;4974799;28;8707;-86
2022/08/05 14:35:59;;;;;;;;;;;;;;;;;;4975168;28;8513;-85
2022/08/05 14:38:25;;;;;;;;;;;;;;;;;;4975226;28;8564;-86
2022/08/05 14:40:50;;;;;;;;;;;;;;;;;;4974978;28;7174;-87
2022/08/05 14:43:16;;;;;;;;;;;;;;;;;;4974985;28;8675;-87
2022/08/05 14:45:41;;;;;;;;;;;;;;;;;;4974626;28;8302;-85
2022/08/05 14:48:07;;;;;;;;;;;;;;;;;;4974247;28;8464;-87
2022/08/05 14:50:32;;;;;;;;;;;;;;;;;;4974327;28;8436;-86
2022/08/05 14:52:58;;;;;;;;;;;;;;;;;;4990877;28;7050;-87
2022/08/05 14:55:24;;;;;;;;;;;;;;;;;;4990779;28;8844;-87
2022/08/05 14:57:49;;;;;;;;;;;;;;;;;;4974772;28;7261;-86
2022/08/05 15:00:15;;;;;;;;;;;;;;;;;;4990935;28;7319;-87
2022/08/05 15:02:40;;;;;;;;;;;;;;;;;;4991214;28;7042;-87
2022/08/05 15:05:07;;;;;;;;;;;;;;;;;;4990902;28;8762;-87
2022/08/05 15:07:33;;;;;;;;;;;;;;;;;;4990831;28;7393;-88
2022/08/05 15:09:58;;;;;;;;;;;;;;;;;;4990777;28;8478;-88
2022/08/05 15:12:24;;;;;;;;;;;;;;;;;;4990684;28;7076;-87
2022/08/05 15:14:49;;;;;;;;;;;;;;;;;;4991516;28;7006;-87
2022/08/05 15:17:15;;;;;;;;;;;;;;;;;;4994395;28;8481;-88
2022/08/05 15:19:41;;;;;;;;;;;;;;;;;;4994322;28;9396;-87
2022/08/05 15:22:07;;;;;;;;;;;;;;;;;;4993172;28;8338;-86
2022/08/05 15:24:33;;;;;;;;;;;;;;;;;;4993285;28;8624;-86
2022/08/05 15:26:58;;;;;;;;;;;;;;;;;;4994010;28;8548;-87
2022/08/05 15:29:23;;;;;;;;;;;;;;;;;;4993798;28;7053;-87
2022/08/05 15:31:49;;;;;;;;;;;;;;;;;;4994177;28;7025;-87
2022/08/05 15:34:14;;;;;;;;;;;;;;;;;;4993676;28;8443;-86
2022/08/05 15:36:40;;;;;;;;;;;;;;;;;;4994119;28;7050;-86
2022/08/05 15:39:05;;;;;;;;;;;;;;;;;;4994235;28;8877;-85
2022/08/05 15:41:31;;;;;;;;;;;;;;;;;;4994105;28;7255;-86
2022/08/05 15:43:56;;;;;;;;;;;;;;;;;;4994395;28;8442;-86
2022/08/05 15:46:22;;;;;;;;;;;;;;;;;;4994278;28;8451;-88
2022/08/05 15:48:48;;;;;;;;;;;;;;;;;;4994089;28;7193;-88
2022/08/05 15:51:13;;;;;;;;;;;;;;;;;;4994229;28;8465;-88
2022/08/05 15:53:39;;;;;;;;;;;;;;;;;;4994380;28;8453;-88
2022/08/05 15:56:04;;;;;;;;;;;;;;;;;;4993948;28;7227;-85
2022/08/05 15:58:31;;;;;;;;;;;;;;;;;;4994389;28;8508;-86
2022/08/05 16:00:58;;;;;;;;;;;;;;;;;;4993438;28;7903;-87
2022/08/05 16:03:23;;;;;;;;;;;;;;;;;;4994114;28;7066;-88
2022/08/05 16:05:49;;;;;;;;;;;;;;;;;;4993806;28;7173;-87
2022/08/05 16:08:14;;;;;;;;;;;;;;;;;;4993497;28;7502;-88
2022/08/05 16:10:40;;;;;;;;;;;;;;;;;;4993720;28;8627;-87
2022/08/05 16:13:05;;;;;;;;;;;;;;;;;;4993813;28;8406;-87
2022/08/05 16:15:31;;;;;;;;;;;;;;;;;;4993387;28;8771;-87
2022/08/05 16:17:56;;;;;;;;;;;;;;;;;;4993564;28;8671;-86
2022/08/05 16:20:22;;;;;;;;;;;;;;;;;;4993037;28;8450;-87
2022/08/05 16:22:47;;;;;;;;;;;;;;;;;;4993219;28;8448;-87
2022/08/05 16:25:13;;;;;;;;;;;;;;;;;;4992896;28;7152;-88
2022/08/05 16:27:39;;;;;;;;;;;;;;;;;;4993623;28;7201;-87
2022/08/05 16:30:04;;;;;;;;;;;;;;;;;;4993329;28;7068;-87
2022/08/05 16:32:30;;;;;;;;;;;;;;;;;;4993435;28;7201;-89
2022/08/05 16:34:56;;;;;;;;;;;;;;;;;;4993302;28;8444;-88
2022/08/05 16:37:23;;;;;;;;;;;;;;;;;;4993284;28;8384;-88
2022/08/05 16:39:48;;;;;;;;;;;;;;;;;;4993254;28;7212;-85
2022/08/05 16:42:13;;;;;;;;;;;;;;;;;;4992788;28;8849;-86
2022/08/05 16:44:39;;;;;;;;;;;;;;;;;;4993590;28;8532;-87
2022/08/05 16:47:04;;;;;;;;;;;;;;;;;;4993326;28;8518;-86
2022/08/05 16:49:30;;;;;;;;;;;;;;;;;;4992555;28;8449;-85
2022/08/05 16:51:56;;;;;;;;;;;;;;;;;;4993091;28;7565;-86
2022/08/05 16:54:21;;;;;;;;;;;;;;;;;;4992665;28;7169;-88
2022/08/05 16:56:47;;;;;;;;;;;;;;;;;;4993338;28;8485;-86
2022/08/05 16:59:12;;;;;;;;;;;;;;;;;;4994198;28;7834;-86
2022/08/05 17:01:39;;;;;;;;;;;;;;;;;;4992820;28;8151;-87
2022/08/05 17:04:04;;;;;;;;;;;;;;;;;;4992829;28;8453;-88
2022/08/05 17:06:30;;;;;;;;;;;;;;;;;;4992687;28;7041;-87
2022/08/05 17:08:56;;;;;;;;;;;;;;;;;;4992491;28;7374;-87
2022/08/05 17:11:22;;;;;;;;;;;;;;;;;;4992586;28;7130;-86